Latest Coastal Weather Observations for Maria Island

IDT60701

Issued at 9:05 am EST Thursday 31 July 2014 (issued every 10 minutes, with the page automatically refreshed every 10 minutes)

About coastal observations | Map of coastal stations | Coastal observations for TAS | Marine services | Other Formats
Station Details ID: 092124 Name: MARIA ISLAND (POINT LESUEUR) Lat: -42.66 Lon: 148.02 Height: 28.0 m
Data from the previous 72 hours. | See also: Recent months at Maria Island
Date/Time
EST
Temp

°C
Wind Pressure Rain
since 9am
mm
Weather Cloud Vis
km
Sea
Height
m
Swell
Dir
 
Speed
knots
Gust
knots
hPa Trend Height
m
Period
s
Dir
31/09:00am 7.9 E 4 6 987.8 - 5.8 Recent precip. - - - - - -
31/08:30am 7.7 E 4 5 988.2 - 5.6 - - - - - - -
31/08:00am 7.9 SSE 5 7 988.7 - 5.0 - - - - - - -
31/07:30am 7.9 S 11 13 989.4 - 4.6 - - - - - - -
31/07:00am 8.3 S 12 14 989.5 - 3.6 - - - - - - -
31/06:30am 8.3 S 13 16 989.2 - 3.2 - - - - - - -
31/06:00am 7.9 S 18 21 988.9 - 3.2 Rain - - - - - -
31/05:48am 8.1 SSW 21 24 989.5 - 2.8 - - - - - - -
31/05:37am 8.2 SSW 34 44 989.4 - 1.4 - - - - - - -
31/05:33am 8.7 SSW 37 44 988.3 - 1.0 - - - - - - -
31/05:32am 9.3 SW 22 43 988.7 - 0.6 - - - - - - -
31/05:30am 9.6 SW 18 24 989.5 - 0.4 - - - - - - -
31/05:27am 12.8 WNW 12 15 989.3 - 0.2 - - - - - - -
31/05:00am 13.1 N 22 27 987.9 - 0.2 - - - - - - -
31/04:30am 12.9 N 17 20 987.9 - 0.2 - - - - - - -
31/04:00am 13.1 NNW 15 19 988.1 - 0.2 - - - - - - -
31/03:30am 13.2 NNW 18 22 988.2 - 0.2 - - - - - - -
31/03:00am 13.6 NNW 23 27 988.3 - 0.2 - - - - - - -
31/02:30am 13.7 NNW 29 35 988.0 - 0.2 - - - - - - -
31/02:00am 13.2 NNW 27 32 988.5 - 0.2 - - - - - - -
31/01:30am 12.9 NNW 27 33 988.2 - 0.2 - - - - - - -
31/01:00am 13.1 NNW 30 36 988.2 - 0.2 - - - - - - -
31/12:30am 13.0 NNW 29 35 988.4 - 0.2 - - - - - - -
31/12:00am 12.9 NNW 29 36 989.3 - 0.2 - - - - - - -
 
Date/Time
EST
Temp

°C
Wind Pressure Rain
since 9am
mm
Weather Cloud Vis
km
Sea
Height
m
Swell
Dir
 
Speed
knots
Gust
knots
hPa Trend Height
m
Period
s
Dir
30/11:30pm 13.5 NNW 30 36 989.1 - 0.2 - - - - - - -
30/11:11pm 13.4 NNW 29 39 989.4 - 0.2 - - - - - - -
30/11:00pm 13.8 NW 29 37 989.5 - 0.2 - - - - - - -
30/10:30pm 13.3 NNW 25 32 990.0 - 0.2 - - - - - - -
30/10:00pm 13.3 NNW 28 33 989.8 - 0.2 - - - - - - -
30/09:30pm 13.3 NNW 30 37 989.9 - 0.2 - - - - - - -
30/09:00pm 13.4 NNW 29 36 990.2 - 0.2 - - - - - - -
30/08:30pm 13.1 NNW 22 29 991.1 - 0.2 - - - - - - -
30/08:00pm 13.4 NNW 21 27 991.6 - 0.2 - - - - - - -
30/07:30pm 13.6 NW 22 31 992.4 - 0.2 - - - - - - -
30/07:00pm 13.9 NW 22 30 993.0 - 0.2 - - - - - - -
30/06:32pm 14.2 WNW 25 36 992.4 - 0.2 - - - - - - -
30/06:30pm 14.2 WNW 24 33 992.5 - 0.2 - - - - - - -
30/06:17pm 14.3 NW 30 41 992.3 - 0.2 - - - - - - -
30/06:11pm 14.0 NW 27 36 992.1 - 0.2 - - - - - - -
30/06:00pm 13.4 NW 21 26 992.6 - 0.0 - - - - - - -
30/05:30pm 13.3 NW 20 25 992.7 - 0.0 - - - - - - -
30/05:00pm 12.9 NW 16 21 992.9 - 0.0 - - - - - - -
30/04:54pm 12.9 NW 17 21 992.9 - 0.0 - - - - - - -
30/04:34pm 13.4 W 26 36 992.8 - 0.0 - - - - - - -
30/04:30pm 13.7 W 24 30 992.6 - 0.0 - - - - - - -
30/04:02pm 14.5 NW 19 32 992.5 - 0.0 - - - - - - -
30/04:00pm 14.5 NW 19 26 992.6 - 0.0 - - - - - - -
30/03:30pm 14.4 NW 22 27 992.3 - 0.0 - - - - - - -
30/03:11pm 14.5 NW 22 32 992.5 - 0.0 - - - - - - -
30/03:00pm 14.9 WNW 21 26 992.7 - 0.0 - - - - - - -
30/02:59pm 14.9 WNW 21 26 992.6 - 0.0 - - - - - - -
30/02:30pm 15.1 WNW 33 44 992.4 - 0.0 - - - - - - -
30/02:00pm 15.0 WNW 29 42 992.8 - 0.0 - - - - - - -
30/01:49pm 15.1 WNW 29 41 992.7 - 0.0 - - - - - - -
30/01:30pm 15.2 WNW 28 37 992.9 - 0.0 - - - - - - -
30/01:00pm 14.7 WNW 29 42 992.8 - 0.0 - - - - - - -
30/12:30pm 14.5 NW 29 42 993.2 - 0.0 - - - - - - -
30/12:00pm 14.8 NW 28 39 993.6 - 0.0 - - - - - - -
30/11:55am 14.5 NW 27 38 993.4 - 0.0 - - - - - - -
30/11:30am 14.2 NW 25 31 994.2 - 0.0 - - - - - - -
30/11:14am 14.3 NW 25 36 994.5 - 0.0 - - - - - - -
30/11:00am 13.9 NW 22 26 995.0 - 0.0 - - - - - - -
30/10:30am 12.8 NNW 21 28 995.5 - 0.0 - - - - - - -
30/10:00am 12.2 NW 23 29 995.5 - 0.0 - - - - - - -
30/09:30am 11.5 NW 26 33 995.5 - 0.0 - - - - - - -
30/09:00am 11.3 NNW 24 31 995.7 - 6.0 - - - - - - -
30/08:30am 10.8 NW 26 33 995.7 - 6.0 - - - - - - -
30/08:00am 10.9 NNW 22 29 996.1 - 6.0 - - - - - - -
30/07:30am 10.6 NNW 18 25 996.0 - 6.0 - - - - - - -
30/07:00am 10.2 WNW 17 22 995.8 - 6.0 - - - - - - -
30/06:30am 9.8 WNW 20 26 996.7 - 6.0 - - - - - - -
30/06:00am 9.5 WNW 18 24 996.9 - 6.0 - - - - - - -
30/05:30am 9.3 W 20 27 996.8 - 6.0 - - - - - - -
30/05:00am 9.5 WNW 22 29 996.6 - 6.0 - - - - - - -
30/04:41am 9.6 WNW 18 27 996.2 - 6.0 - - - - - - -
30/04:30am 9.3 WNW 12 16 996.4 - 6.0 - - - - - - -
30/04:00am 9.2 W 18 24 995.7 - 6.0 - - - - - - -
30/03:30am 8.9 WNW 19 25 994.7 - 6.0 - - - - - - -
30/03:00am 8.7 WNW 17 21 994.4 - 6.0 - - - - - - -
30/02:43am 8.8 WNW 16 24 993.8 - 6.0 - - - - - - -
30/02:30am 8.4 WNW 10 13 993.8 - 6.0 - - - - - - -
30/02:00am 8.3 WNW 22 27 993.1 - 6.0 - - - - - - -
30/01:32am 8.0 W 26 36 993.3 - 6.0 - - - - - - -
30/01:30am 8.2 W 27 36 993.4 - 6.0 - - - - - - -
30/01:17am 8.7 W 32 43 992.7 - 5.6 - - - - - - -
30/01:15am 8.6 WNW 35 43 992.4 - 5.6 - - - - - - -
30/01:14am 8.8 WNW 23 43 992.5 - 5.4 - - - - - - -
30/01:03am 9.2 W 15 30 992.2 - 5.0 - - - - - - -
30/01:00am 8.8 WNW 14 19 992.3 - 5.0 - - - - - - -
30/12:30am 8.2 W 15 21 991.9 - 5.0 - - - - - - -
30/12:00am 9.5 WNW 11 15 991.1 - 4.4 - - - - - - -
 
Date/Time
EST
Temp

°C
Wind Pressure Rain
since 9am
mm
Weather Cloud Vis
km
Sea
Height
m
Swell
Dir
 
Speed
knots
Gust
knots
hPa Trend Height
m
Period
s
Dir
29/11:30pm 9.2 NW 24 34 990.2 - 4.4 - - - - - - -
29/11:04pm 8.0 WNW 25 36 990.1 - 4.4 - - - - - - -
29/11:00pm 7.9 WNW 27 37 990.1 - 4.4 - - - - - - -
29/10:30pm 8.4 W 34 45 990.1 - 2.4 - - - - - - -
29/10:27pm 9.5 W 31 40 990.1 - 2.0 - - - - - - -
29/10:15pm 10.8 WNW 28 38 989.8 - 1.8 - - - - - - -
29/10:00pm 12.1 NW 28 34 988.9 - 1.8 - - - - - - -
29/09:30pm 12.9 WNW 22 33 988.2 - 1.8 - - - - - - -
29/09:00pm 13.1 WNW 27 37 988.1 - 1.8 - - - - - - -
29/08:43pm 13.1 WNW 26 46 987.5 - 1.8 - - - - - - -
29/08:31pm 12.8 WNW 24 34 987.3 - 1.8 - - - - - - -
29/08:30pm 12.7 WNW 25 34 987.1 - 1.8 - - - - - - -
29/08:03pm 12.3 WNW 27 42 986.8 - 1.8 - - - - - - -
29/08:00pm 12.1 WNW 26 35 987.1 - 1.8 - - - - - - -
29/07:30pm 11.3 NW 24 41 986.9 - 1.8 - - - - - - -
29/07:11pm 10.3 WNW 30 41 987.3 - 1.8 - - - - - - -
29/07:08pm 10.4 W 31 41 987.8 - 1.6 - - - - - - -
29/07:03pm 11.5 W 17 29 988.2 - 1.0 - - - - - - -
29/07:00pm 11.6 W 15 21 987.9 - 0.8 - - - - - - -
29/06:51pm 12.0 W 23 34 987.2 - 0.6 - - - - - - -
29/06:42pm 12.3 W 28 33 986.9 - 0.6 - - - - - - -
29/06:30pm 13.0 NW 27 36 985.9 - 0.4 - - - - - - -
29/06:07pm 13.6 NW 23 38 984.8 - 0.2 - - - - - - -
29/06:00pm 13.6 NNW 22 29 985.0 - 0.2 Recent precip. - - - - - -
29/05:30pm 13.1 NNW 21 26 985.1 - 0.0 - - - - - - -
29/05:29pm 13.1 NNW 21 23 985.2 - 0.0 - - - - - - -
29/05:00pm 13.1 N 31 36 984.8 - 0.0 - - - - - - -
29/04:30pm 13.0 N 24 30 985.2 - 0.0 - - - - - - -
29/04:00pm 13.0 NNW 24 29 985.8 - 0.0 - - - - - - -
29/03:30pm 13.1 NNW 23 26 986.2 - 0.0 - - - - - - -
29/03:00pm 14.2 NW 20 24 987.1 - 0.0 - - - - - - -
29/02:30pm 13.3 NW 25 32 987.2 - 0.0 - - - - - - -
29/02:00pm 12.6 NW 23 28 987.6 - 0.0 - - - - - - -
29/01:30pm 12.3 WNW 22 33 988.3 - 0.0 - - - - - - -
29/01:00pm 11.1 WNW 26 33 989.7 - 0.0 - - - - - - -
29/12:30pm 12.9 WNW 27 33 989.6 - 0.0 - - - - - - -
29/12:11pm 13.9 WNW 27 37 989.2 - 0.0 - - - - - - -
29/12:00pm 13.7 WNW 31 39 989.0 - 0.0 - - - - - - -
29/11:30am 14.4 NW 31 42 989.0 - 0.0 - - - - - - -
29/11:08am 14.4 NW 25 41 989.7 - 0.0 - - - - - - -
29/11:00am 14.4 NW 24 33 989.6 - 0.0 - - - - - - -
29/10:30am 14.2 NW 23 30 989.5 - 0.0 - - - - - - -
29/10:19am 14.3 NNW 22 32 989.7 - 0.0 - - - - - - -
29/10:00am 14.2 NNW 24 28 989.5 - 0.0 - - - - - - -
29/09:30am 13.6 NNW 27 32 989.2 - 0.0 - - - - - - -
29/09:10am 13.1 NNW 30 40 989.6 - 0.0 - - - - - - -
29/09:00am 13.0 NNW 33 39 989.4 - 0.0 - - - - - - -
29/08:45am 13.5 NNW 38 44 989.3 - 0.0 - - - - - - -
29/08:30am 13.7 NNW 26 33 990.5 - 0.0 - - - - - - -
29/08:00am 13.3 NNW 24 31 990.7 - 0.0 - - - - - - -
29/07:40am 13.2 NNW 26 37 990.3 - 0.0 - - - - - - -
29/07:30am 13.0 NNW 24 30 990.8 - 0.0 - - - - - - -
29/07:00am 13.2 N 27 33 991.4 - 0.0 - - - - - - -
29/06:45am 13.2 N 28 38 990.8 - 0.0 - - - - - - -
29/06:30am 13.1 N 28 36 991.4 - 0.0 - - - - - - -
29/06:00am 13.0 N 28 38 991.8 - 0.0 - - - - - - -
29/05:47am 12.9 NNW 25 38 991.8 - 0.0 - - - - - - -
29/05:30am 12.8 N 25 33 992.8 - 0.0 - - - - - - -
29/05:00am 12.6 N 23 31 994.1 - 0.0 - - - - - - -
29/04:30am 12.4 N 20 25 994.3 - 0.0 - - - - - - -
29/04:00am 12.2 N 18 27 995.2 - 0.0 - - - - - - -
29/03:30am 12.1 N 18 22 996.2 - 0.0 - - - - - - -
29/03:00am 12.2 N 18 22 996.5 - 0.0 - - - - - - -
29/02:30am 12.1 N 20 25 996.9 - 0.0 - - - - - - -
29/02:00am 12.2 N 19 24 997.5 - 0.0 - - - - - - -
29/01:30am 12.0 N 16 20 997.8 - 0.0 - - - - - - -
29/01:00am 11.6 N 12 17 998.7 - 0.0 - - - - - - -
29/12:30am 11.7 NNW 12 16 999.4 - 0.0 - - - - - - -
29/12:00am 11.2 NNW 8 10 999.6 - 0.0 - - - - - - -
 
Date/Time
EST
Temp

°C
Wind Pressure Rain
since 9am
mm
Weather Cloud Vis
km
Sea
Height
m
Swell
Dir
 
Speed
knots
Gust
knots
hPa Trend Height
m
Period
s
Dir
28/11:30pm 11.5 N 13 17 999.7 - 0.0 - - - - - - -
28/11:00pm 11.4 N 13 17 1000.3 - 0.0 - - - - - - -
28/10:30pm 11.6 NNW 16 21 1000.8 - 0.0 - - - - - - -
28/10:00pm 11.9 NNW 19 24 1000.8 - 0.0 - - - - - - -
28/09:30pm 12.4 N 14 19 1000.7 - 0.0 - - - - - - -
28/09:00pm 12.5 NNW 10 14 1001.6 - 0.0 - - - - - - -
28/08:30pm 12.9 N 11 13 1001.8 - 0.0 - - - - - - -
28/08:00pm 12.5 NNW 10 13 1001.9 - 0.0 - - - - - - -
28/07:30pm 12.6 NW 8 11 1002.1 - 0.0 - - - - - - -
28/07:00pm 12.8 NNW 12 14 1002.2 - 0.0 - - - - - - -
28/06:30pm 12.8 N 14 17 1001.8 - 0.0 - - - - - - -
28/06:00pm 12.9 N 14 16 1001.4 - 0.0 - - - - - - -
28/05:30pm 13.3 NNW 15 19 1001.6 - 0.0 - - - - - - -
28/05:00pm 13.6 NNW 16 19 1001.7 - 0.0 - - - - - - -
28/04:30pm 14.3 N 18 22 1001.3 - 0.0 - - - - - - -
28/04:00pm 14.7 N 18 21 1001.2 - 0.0 - - - - - - -
28/03:30pm 15.3 N 17 20 1001.6 - 0.0 - - - - - - -
28/03:00pm 15.3 N 14 17 1002.0 - 0.0 - - - - - - -
28/02:30pm 15.3 N 13 15 1002.1 - 0.0 - - - - - - -
28/02:00pm 15.3 N 14 17 1002.3 - 0.0 - - - - - - -
28/01:30pm 14.6 N 14 18 1002.9 - 0.0 - - - - - - -
28/01:00pm 14.8 N 12 15 1003.4 - 0.0 - - - - - - -
28/12:30pm 15.3 N 11 13 1003.7 - 0.0 - - - - - - -
28/12:00pm 14.3 N 11 12 1004.2 - 0.0 - - - - - - -
28/11:30am 15.4 N 10 14 1004.7 - 0.0 - - - - - - -
28/11:00am 14.9 N 13 17 1005.2 - 0.0 - - - - - - -
28/10:30am 14.4 N 13 16 1005.5 - 0.0 - - - - - - -
28/10:00am 14.0 N 14 16 1005.8 - 0.0 - - - - - - -
28/09:30am 14.0 N 9 11 1006.0 - 0.0 - - - - - - -

Other Formats:

Comma delimited format used in spreadsheet applications
http://www.bom.gov.au/fwo/IDT60701/IDT60701.95988.axf

JavaScript Object Notation format (JSON) in row-major order
http://www.bom.gov.au/fwo/IDT60701/IDT60701.95988.json